Time;durP1;ratioP1;P1;durP2;ratioP2;P2;SDS_P1;SDS_P2;PMS_P1;PMS_P2;Temp;Humidity;BMP_temperature;BMP_pressure;BME280_temperature;BME280_humidity;BME280_pressure;Samples;Min_cycle;Max_cycle;Signal;HPM_P1;HPM_P2
2022/03/23 00:01:59;;;;;;;67.40;42.25;;;;;;;4.14;62.18;101822.23;2798911;83;21024;-69
2022/03/23 00:06:01;;;;;;;62.83;39.42;;;;;;;3.96;62.17;101824.09;2792295;83;21591;-69
2022/03/23 00:10:05;;;;;;;66.55;40.88;;;;;;;3.91;62.47;101827.30;2814763;83;21083;-69
2022/03/23 00:14:09;;;;;;;50.92;32.73;;;;;;;3.90;62.20;101826.88;2835788;83;21021;-69
2022/03/23 00:18:12;;;;;;;53.30;33.60;;;;;;;3.92;62.46;101831.21;2780847;84;21058;-69
2022/03/23 00:22:14;;;;;;;51.42;34.43;;;;;;;3.94;62.46;101823.28;2735376;85;21087;-69
2022/03/23 00:26:16;;;;;;;53.35;36.23;;;;;;;3.89;63.00;101824.72;2742707;84;21082;-69
2022/03/23 00:30:17;;;;;;;47.70;30.77;;;;;;;3.91;62.81;101821.59;2768561;83;21094;-69
2022/03/23 00:34:19;;;;;;;52.25;32.55;;;;;;;3.95;63.40;101819.74;2744210;84;21087;-69
2022/03/23 00:38:21;;;;;;;41.68;30.55;;;;;;;3.96;63.44;101817.05;2721028;85;21083;-69
2022/03/23 00:42:23;;;;;;;58.25;38.88;;;;;;;4.05;63.12;101817.23;2720999;85;21368;-69
2022/03/23 00:46:24;;;;;;;62.08;42.62;;;;;;;4.14;63.10;101814.77;2716625;86;21051;-69
2022/03/23 00:50:26;;;;;;;80.53;46.50;;;;;;;4.18;62.94;101813.77;2741226;86;21095;-68
2022/03/23 00:54:28;;;;;;;70.15;40.58;;;;;;;4.12;63.44;101811.33;2724274;85;21078;-68
2022/03/23 00:58:29;;;;;;;50.98;33.18;;;;;;;4.17;63.04;101801.97;2714025;85;21107;-69
2022/03/23 01:02:31;;;;;;;57.90;32.95;;;;;;;4.21;62.31;101799.65;2709629;85;21106;-69
2022/03/23 01:06:33;;;;;;;60.78;36.90;;;;;;;4.33;61.92;101788.73;2733654;85;21115;-69
2022/03/23 01:10:34;;;;;;;69.25;38.05;;;;;;;4.46;61.67;101788.33;2722802;85;21631;-68
2022/03/23 01:14:36;;;;;;;75.87;42.30;;;;;;;4.48;61.66;101783.42;2717402;86;21586;-67
2022/03/23 01:18:38;;;;;;;77.72;47.33;;;;;;;4.57;61.14;101780.95;2717866;85;21142;-69
2022/03/23 01:22:43;;;;;;;99.17;47.13;;;;;;;4.57;60.99;101782.27;2726573;85;21188;-69
2022/03/23 01:26:44;;;;;;;47.33;33.67;;;;;;;4.50;60.77;101774.13;2734070;85;21068;-69
2022/03/23 01:30:46;;;;;;;48.45;33.10;;;;;;;4.27;61.21;101775.73;2730058;85;21599;-68
2022/03/23 01:34:48;;;;;;;64.47;35.35;;;;;;;4.07;61.72;101770.63;2715555;86;21165;-69
2022/03/23 01:38:49;;;;;;;54.30;33.70;;;;;;;3.91;62.80;101771.56;2734691;85;21052;-69
2022/03/23 01:42:51;;;;;;;64.30;39.30;;;;;;;3.73;63.14;101774.27;2743679;86;21095;-69
2022/03/23 01:47:09;;;;;;;83.55;49.33;;;;;;;3.71;62.48;101777.41;2736318;85;21099;-69
2022/03/23 01:51:12;;;;;;;86.92;49.90;;;;;;;3.51;63.17;101768.31;2722321;85;21146;-69
2022/03/23 01:55:14;;;;;;;67.80;38.35;;;;;;;3.29;64.32;101768.08;2725042;86;21058;-69
2022/03/23 01:59:18;;;;;;;51.60;29.05;;;;;;;3.18;64.56;101759.59;2725384;86;21114;-68
2022/03/23 02:03:20;;;;;;;55.67;27.48;;;;;;;3.18;64.85;101755.22;2737298;85;21161;-69
2022/03/23 02:07:22;;;;;;;50.33;33.75;;;;;;;3.19;64.61;101746.42;2733258;86;21031;-69
2022/03/23 02:11:25;;;;;;;50.05;30.88;;;;;;;3.32;63.97;101750.01;2698042;85;21075;-69
2022/03/23 02:15:28;;;;;;;48.92;31.87;;;;;;;3.35;64.78;101749.48;2733178;85;21047;-69
2022/03/23 02:19:31;;;;;;;61.33;30.25;;;;;;;3.38;64.13;101752.02;2708337;85;21059;-69
2022/03/23 02:23:32;;;;;;;53.40;29.70;;;;;;;3.34;63.94;101741.62;2727255;86;21107;-70
2022/03/23 02:27:36;;;;;;;48.92;32.03;;;;;;;3.38;63.35;101751.17;2716708;86;21450;-69
2022/03/23 02:31:38;;;;;;;59.50;31.00;;;;;;;3.38;63.79;101752.48;2716943;85;21107;-69
2022/03/23 02:35:39;;;;;;;59.95;39.05;;;;;;;3.44;63.37;101745.73;2734771;85;21429;-69
2022/03/23 02:39:41;;;;;;;56.35;34.67;;;;;;;3.58;63.09;101745.33;2733553;85;21535;-69
2022/03/23 02:43:43;;;;;;;59.00;34.03;;;;;;;3.71;62.74;101744.50;2723807;85;21575;-70
2022/03/23 02:47:45;;;;;;;51.48;30.97;;;;;;;3.88;62.13;101737.88;2729240;85;21630;-69
2022/03/23 02:51:50;;;;;;;50.95;31.65;;;;;;;4.02;61.44;101736.13;2725668;85;21122;-69
2022/03/23 03:04:56;;;;;;;48.65;28.15;;;;;;;3.98;60.50;101741.50;2688447;85;21044;-69
2022/03/23 03:08:58;;;;;;;43.65;28.77;;;;;;;3.78;60.33;101743.44;2705280;87;21079;-68
2022/03/23 03:13:00;;;;;;;49.67;31.35;;;;;;;3.57;60.16;101741.84;2708038;86;21608;-69
2022/03/23 03:17:02;;;;;;;53.78;35.25;;;;;;;3.40;60.48;101733.58;2736068;86;21099;-68
2022/03/23 03:21:09;;;;;;;61.65;34.92;;;;;;;3.27;61.82;101741.80;2722004;86;21103;-69
2022/03/23 03:25:16;;;;;;;62.58;36.03;;;;;;;3.16;61.73;101738.63;2736050;86;21134;-69
2022/03/23 03:29:18;;;;;;;57.30;35.70;;;;;;;3.13;62.08;101734.30;2723226;85;21106;-69
2022/03/23 03:33:20;;;;;;;58.38;37.03;;;;;;;3.13;62.76;101736.93;2726840;86;21099;-69
2022/03/23 03:37:21;;;;;;;57.83;37.15;;;;;;;3.18;63.13;101738.13;2734798;85;21086;-69
2022/03/23 03:41:23;;;;;;;57.13;35.15;;;;;;;3.26;62.67;101742.70;2730673;86;22301;-68
2022/03/23 03:45:25;;;;;;;62.20;36.40;;;;;;;3.08;63.03;101745.84;2729662;85;21158;-69
2022/03/23 03:49:26;;;;;;;58.02;34.70;;;;;;;3.04;62.88;101744.20;2719745;85;21587;-69
2022/03/23 03:57:50;;;;;;;54.53;36.23;;;;;;;2.94;63.80;101747.06;2815541;82;21059;-72
2022/03/23 04:01:51;;;;;;;61.08;40.20;;;;;;;2.91;64.43;101748.93;2833549;83;21671;-75
2022/03/23 04:05:53;;;;;;;54.25;32.88;;;;;;;2.85;64.79;101743.38;2831970;83;21560;-72
2022/03/23 04:09:55;;;;;;;55.80;38.17;;;;;;;2.77;64.75;101743.57;2832632;83;21046;-74
2022/03/23 04:13:56;;;;;;;61.42;38.15;;;;;;;2.58;65.30;101739.25;2821079;82;21558;-73
2022/03/23 04:17:58;;;;;;;69.25;39.78;;;;;;;2.48;65.88;101737.73;2817359;82;21047;-70
2022/03/23 04:22:00;;;;;;;63.15;42.27;;;;;;;2.48;66.23;101749.13;2799084;82;21065;-76
2022/03/23 04:26:02;;;;;;;73.52;44.20;;;;;;;2.34;67.24;101741.55;2826747;83;21385;-77
2022/03/23 04:30:05;;;;;;;68.37;37.20;;;;;;;2.29;67.49;101748.69;2829121;83;21079;-76
2022/03/23 04:34:07;;;;;;;56.35;35.73;;;;;;;2.23;66.85;101751.47;2837659;82;21119;-77
2022/03/23 04:38:09;;;;;;;68.97;35.00;;;;;;;2.19;66.37;101754.59;2820002;83;21094;-77
2022/03/23 04:42:11;;;;;;;66.65;39.38;;;;;;;1.84;67.54;101760.19;2826628;83;21051;-77
2022/03/23 04:46:13;;;;;;;55.43;34.85;;;;;;;1.56;67.70;101757.69;2825833;82;21020;-77
2022/03/23 04:50:16;;;;;;;71.50;43.08;;;;;;;1.34;68.61;101760.33;2821280;82;21071;-77
2022/03/23 04:54:18;;;;;;;78.90;43.40;;;;;;;1.10;70.17;101763.84;2828445;82;21090;-77
2022/03/23 04:58:19;;;;;;;80.28;41.42;;;;;;;1.15;71.54;101755.44;2830313;82;21122;-77
2022/03/23 05:02:21;;;;;;;70.62;47.15;;;;;;;1.15;71.78;101764.61;2816477;83;21598;-77
2022/03/23 05:06:23;;;;;;;75.32;47.45;;;;;;;1.25;70.68;101769.23;2823628;83;21098;-75
2022/03/23 05:10:25;;;;;;;74.90;46.77;;;;;;;1.35;71.52;101765.98;2839368;83;21125;-76
2022/03/23 05:14:27;;;;;;;89.17;52.15;;;;;;;1.58;72.09;101759.45;2835282;83;21124;-75
2022/03/23 05:18:28;;;;;;;98.70;53.45;;;;;;;1.98;72.56;101760.75;2836471;82;21067;-78
2022/03/23 05:22:30;;;;;;;167.03;90.12;;;;;;;2.62;72.81;101750.09;2832726;82;21134;-76
2022/03/23 05:26:32;;;;;;;127.05;72.42;;;;;;;3.25;71.58;101746.24;2824491;82;21171;-75
2022/03/23 05:30:34;;;;;;;96.87;58.80;;;;;;;3.69;71.05;101745.88;2821150;82;23260;-75
2022/03/23 05:34:36;;;;;;;103.17;59.67;;;;;;;4.11;68.67;101741.97;2827588;82;21043;-74
2022/03/23 05:38:39;;;;;;;87.10;52.13;;;;;;;4.81;69.55;101744.97;2817317;83;21071;-77
2022/03/23 05:42:40;;;;;;;108.90;69.42;;;;;;;5.23;64.01;101751.92;2813945;83;21047;-78
2022/03/23 05:46:42;;;;;;;92.25;55.20;;;;;;;5.76;62.56;101757.45;2801352;83;21030;-77
2022/03/23 05:50:43;;;;;;;74.40;46.23;;;;;;;5.89;60.53;101748.59;2771136;83;21106;-76
2022/03/23 05:54:45;;;;;;;71.17;44.13;;;;;;;6.16;61.98;101751.56;2783727;83;21090;-76
2022/03/23 05:58:47;;;;;;;69.32;44.18;;;;;;;6.37;61.04;101752.02;2777249;84;21534;-78
2022/03/23 06:02:49;;;;;;;75.95;46.50;;;;;;;6.59;59.25;101742.36;2769251;83;21106;-77
2022/03/23 06:06:52;;;;;;;64.90;44.10;;;;;;;6.87;59.76;101744.66;2783316;85;21649;-78
2022/03/23 06:10:54;;;;;;;75.10;50.00;;;;;;;7.14;58.78;101748.37;2785098;85;21721;-77
2022/03/23 06:14:55;;;;;;;69.05;47.62;;;;;;;7.42;58.79;101748.45;2776912;83;21062;-77
2022/03/23 06:18:59;;;;;;;64.67;44.05;;;;;;;7.72;59.26;101749.31;2770970;84;21071;-77
2022/03/23 06:23:00;;;;;;;69.22;47.62;;;;;;;7.95;59.26;101751.35;2776747;83;21077;-76
2022/03/23 06:27:02;;;;;;;78.30;45.35;;;;;;;8.05;59.26;101756.59;2771236;83;21091;-76
2022/03/23 06:31:03;;;;;;;86.65;47.40;;;;;;;7.99;56.96;101758.22;2768854;83;21123;-76
2022/03/23 06:35:06;;;;;;;68.57;45.90;;;;;;;8.41;57.29;101755.74;2781513;85;21130;-76
2022/03/23 06:39:08;;;;;;;69.32;43.95;;;;;;;8.37;57.98;101755.99;2784601;85;21047;-77
2022/03/23 06:43:09;;;;;;;93.70;58.28;;;;;;;8.26;59.28;101753.87;2779313;85;21110;-76
2022/03/23 06:47:11;;;;;;;96.10;57.95;;;;;;;8.31;60.64;101759.80;2774316;83;21155;-77
2022/03/23 06:51:13;;;;;;;101.25;58.48;;;;;;;8.53;59.53;101747.67;2776968;83;21384;-76
2022/03/23 06:55:14;;;;;;;97.05;60.15;;;;;;;8.71;58.76;101747.23;2781992;84;21146;-76
2022/03/23 06:59:16;;;;;;;119.80;65.52;;;;;;;8.93;59.61;101756.75;2769154;84;21582;-76
2022/03/23 07:03:18;;;;;;;118.60;69.62;;;;;;;9.56;58.08;101754.38;2780276;83;21071;-76
2022/03/23 07:07:20;;;;;;;102.72;65.10;;;;;;;9.74;57.36;101762.29;2786500;85;21047;-75
2022/03/23 07:11:21;;;;;;;90.60;53.48;;;;;;;10.14;57.60;101746.28;2785243;85;21615;-76
2022/03/23 07:15:24;;;;;;;77.90;53.73;;;;;;;10.51;56.83;101747.81;2769098;83;21601;-76
2022/03/23 07:19:26;;;;;;;68.50;44.85;;;;;;;10.96;55.25;101744.69;2773576;83;21088;-74
2022/03/23 07:23:27;;;;;;;69.92;45.45;;;;;;;10.96;53.94;101742.52;2779426;85;21054;-77
2022/03/23 07:27:29;;;;;;;84.95;61.58;;;;;;;10.98;53.74;101742.78;2781923;83;21081;-76
2022/03/23 07:31:30;;;;;;;74.92;47.43;;;;;;;11.10;53.85;101739.01;2788175;83;21039;-76
2022/03/23 07:35:33;;;;;;;60.63;37.90;;;;;;;10.72;54.76;101737.72;2766699;83;21122;-76
2022/03/23 07:39:34;;;;;;;55.03;34.53;;;;;;;10.62;54.61;101733.41;2773258;85;21073;-76
2022/03/23 07:43:36;;;;;;;49.77;33.70;;;;;;;10.72;53.35;101727.08;2785632;83;21104;-77
2022/03/23 07:47:38;;;;;;;50.48;32.03;;;;;;;11.07;52.35;101728.55;2781446;83;21134;-76
2022/03/23 07:51:40;;;;;;;50.98;33.55;;;;;;;11.41;50.29;101733.14;2781621;83;21094;-75
2022/03/23 07:55:41;;;;;;;59.65;34.73;;;;;;;11.71;49.06;101734.80;2779752;83;21385;-76
2022/03/23 07:59:45;;;;;;;56.50;35.88;;;;;;;12.15;50.52;101730.26;2780142;85;21623;-77
2022/03/23 08:03:46;;;;;;;59.93;38.30;;;;;;;12.59;50.16;101730.06;2775808;84;21154;-76
2022/03/23 08:07:48;;;;;;;45.80;33.28;;;;;;;12.97;48.94;101722.58;2777208;85;21122;-76
2022/03/23 08:11:52;;;;;;;68.35;42.15;;;;;;;13.31;48.96;101723.36;2761907;84;21075;-76
2022/03/23 08:15:56;;;;;;;60.80;34.18;;;;;;;13.58;48.38;101721.08;2786663;85;21494;-76
2022/03/23 08:24:13;;;;;;;44.25;30.25;;;;;;;13.88;48.70;101718.46;2789719;85;21040;-76
2022/03/23 08:28:15;;;;;;;50.25;30.35;;;;;;;14.05;47.16;101722.56;2785298;83;22253;-77
2022/03/23 08:32:17;;;;;;;34.70;28.05;;;;;;;14.11;46.49;101714.94;2776861;83;21004;-76
2022/03/23 08:36:18;;;;;;;39.38;24.85;;;;;;;14.17;46.40;101719.48;2790205;85;21040;-76
2022/03/23 08:40:20;;;;;;;34.45;23.62;;;;;;;14.28;46.14;101724.87;2775856;83;21067;-76
2022/03/23 08:44:22;;;;;;;30.40;20.77;;;;;;;14.42;44.83;101723.83;2778526;83;21083;-76
2022/03/23 08:48:24;;;;;;;40.15;27.82;;;;;;;14.51;43.59;101715.11;2780963;85;21043;-76
2022/03/23 08:52:28;;;;;;;36.83;26.48;;;;;;;14.67;45.38;101710.77;2785265;83;21039;-76
2022/03/23 08:56:29;;;;;;;37.63;23.45;;;;;;;14.81;44.70;101707.05;2779551;83;21560;-76
2022/03/23 09:00:31;;;;;;;35.70;23.57;;;;;;;14.86;44.00;101712.06;2780669;83;21070;-76
2022/03/23 09:04:33;;;;;;;62.05;41.58;;;;;;;15.08;44.66;101706.36;2779248;83;21098;-76
2022/03/23 09:08:34;;;;;;;36.42;26.07;;;;;;;15.22;45.36;101696.75;2787561;85;21540;-76
2022/03/23 09:12:36;;;;;;;32.10;22.25;;;;;;;15.27;45.17;101696.40;2785181;85;21149;-75
2022/03/23 09:16:39;;;;;;;27.15;20.20;;;;;;;15.41;44.79;101698.80;2784303;84;21568;-76
2022/03/23 09:20:41;;;;;;;30.82;19.70;;;;;;;15.66;43.63;101694.64;2770986;83;21131;-74
2022/03/23 09:24:42;;;;;;;27.20;20.80;;;;;;;15.87;42.24;101693.38;2775897;83;21575;-76
2022/03/23 09:28:44;;;;;;;30.60;20.95;;;;;;;15.92;43.25;101689.02;2773385;83;21422;-76
2022/03/23 09:32:47;;;;;;;27.00;18.67;;;;;;;16.03;42.27;101675.55;2769205;85;21141;-76
2022/03/23 09:41:05;;;;;;;;;;;;;;;16.36;42.48;101672.36;2785070;83;21078;-75
2022/03/23 09:45:07;;;;;;;41.10;26.07;;;;;;;16.54;42.41;101661.88;2778675;85;20098;-76
2022/03/23 09:49:09;;;;;;;35.70;24.77;;;;;;;16.72;42.66;101661.78;2785304;85;21019;-76
2022/03/23 09:53:11;;;;;;;37.17;26.33;;;;;;;16.82;43.01;101651.45;2789222;85;21087;-76
2022/03/23 09:57:13;;;;;;;36.20;26.75;;;;;;;16.98;42.92;101649.63;2784134;85;21130;-76
2022/03/23 10:01:33;;;;;;;48.02;33.98;;;;;;;17.11;43.39;101644.53;2777675;85;21038;-76
2022/03/23 10:05:58;;;;;;;42.35;30.97;;;;;;;17.31;43.39;101641.91;2692492;86;21124;-74
2022/03/23 10:10:14;;;;;;;44.77;33.75;;;;;;;17.53;42.66;101637.64;2739639;85;21059;-74
2022/03/23 10:14:57;;;;;;;42.80;30.27;;;;;;;17.73;43.94;101638.15;2746711;86;21004;-74
2022/03/23 10:19:00;;;;;;;40.88;30.35;;;;;;;17.96;44.12;101638.74;2694318;86;21072;-75
2022/03/23 10:23:01;;;;;;;33.75;25.60;;;;;;;18.19;42.97;101623.19;2694754;87;21687;-75
2022/03/23 10:27:11;;;;;;;36.95;26.87;;;;;;;18.32;41.61;101618.84;2743170;84;21070;-76
2022/03/23 10:31:25;;;;;;;52.13;33.95;;;;;;;18.47;42.60;101615.19;2775966;83;21658;-76
2022/03/23 10:35:40;;;;;;;41.13;24.87;;;;;;;18.53;42.55;101609.20;2765994;83;21082;-76
2022/03/23 10:39:42;;;;;;;43.42;33.25;;;;;;;18.71;40.91;101608.45;2739953;85;21662;-75
2022/03/23 10:43:44;;;;;;;40.43;24.85;;;;;;;18.75;41.22;101597.72;2779700;83;21086;-75
2022/03/23 10:47:47;;;;;;;34.55;22.52;;;;;;;18.84;40.79;101591.94;2784992;83;21046;-75
2022/03/23 10:51:48;;;;;;;36.98;24.70;;;;;;;18.91;40.07;101579.58;2779002;83;21094;-75
2022/03/23 10:55:50;;;;;;;157.52;44.50;;;;;;;19.19;40.72;101578.24;2780260;85;21101;-75
2022/03/23 10:59:52;;;;;;;27.50;19.27;;;;;;;19.40;39.22;101575.77;2781599;85;21062;-75
2022/03/23 11:03:53;;;;;;;20.25;16.40;;;;;;;19.44;38.92;101569.05;2770619;83;21063;-75
2022/03/23 11:08:12;;;;;;;25.27;18.32;;;;;;;19.53;38.63;101564.10;2779234;85;21083;-75
2022/03/23 11:16:31;;;;;;;23.87;17.32;;;;;;;19.87;37.87;101551.73;2782586;83;21066;-75
2022/03/23 11:20:47;;;;;;;24.75;16.70;;;;;;;20.03;38.18;101538.89;2781107;83;21082;-75
2022/03/23 11:24:49;;;;;;;25.77;17.37;;;;;;;20.23;38.34;101537.33;2785533;85;21103;-75
2022/03/23 11:28:53;;;;;;;25.27;18.17;;;;;;;20.32;37.62;101530.98;2784648;85;21074;-75
2022/03/23 11:32:55;;;;;;;30.02;17.90;;;;;;;20.41;39.92;101528.66;2786382;83;21134;-75
2022/03/23 11:36:58;;;;;;;26.05;16.67;;;;;;;20.51;38.02;101527.70;2783070;83;21523;-75
2022/03/23 11:41:01;;;;;;;23.80;15.80;;;;;;;20.60;37.58;101513.21;2778743;83;21063;-75
2022/03/23 11:45:03;;;;;;;20.43;15.18;;;;;;;20.74;38.10;101509.06;2777969;83;21055;-75
2022/03/23 11:49:22;;;;;;;17.92;14.65;;;;;;;20.86;37.61;101495.26;2748290;84;21027;-75
2022/03/23 11:53:53;;;;;;;25.68;15.68;;;;;;;20.94;35.84;101493.95;2783391;83;21067;-75
2022/03/23 11:58:02;;;;;;;21.10;13.25;;;;;;;21.03;36.47;101486.67;2791958;85;21145;-75
2022/03/23 12:02:08;;;;;;;19.32;13.90;;;;;;;21.18;36.26;101487.72;2770649;83;21071;-75
2022/03/23 12:06:13;;;;;;;23.87;13.78;;;;;;;21.31;35.23;101480.98;2786320;83;21107;-75
2022/03/23 12:10:21;;;;;;;20.77;14.60;;;;;;;21.42;35.17;101470.33;2783580;83;21138;-75
2022/03/23 12:14:27;;;;;;;20.88;14.47;;;;;;;21.42;33.92;101471.69;2775853;84;21026;-75
2022/03/23 12:18:42;;;;;;;16.77;12.85;;;;;;;21.39;36.39;101463.38;2782460;85;21165;-75
2022/03/23 12:23:05;;;;;;;17.63;13.30;;;;;;;21.21;33.58;101458.97;2769522;83;21072;-75
2022/03/23 12:27:46;;;;;;;17.40;12.33;;;;;;;21.29;33.46;101447.84;2786852;83;21063;-75
2022/03/23 12:31:48;;;;;;;18.45;11.68;;;;;;;21.33;32.59;101445.12;2780311;83;21094;-75
2022/03/23 12:35:50;;;;;;;18.48;12.10;;;;;;;21.34;33.38;101431.93;2787980;83;21118;-75
2022/03/23 12:39:51;;;;;;;14.90;10.55;;;;;;;21.43;33.63;101426.87;2774465;84;21162;-75
2022/03/23 12:43:53;;;;;;;15.58;11.25;;;;;;;21.52;34.13;101431.25;2781895;83;21134;-75
2022/03/23 12:47:58;;;;;;;13.03;10.00;;;;;;;21.62;33.45;101421.59;2782305;83;21046;-74
2022/03/23 13:00:45;;;;;;;14.45;11.22;;;;;;;21.68;32.22;101413.33;2792057;85;21059;-75
2022/03/23 13:04:50;;;;;;;19.55;11.75;;;;;;;21.80;32.61;101411.10;2782617;83;21047;-73
2022/03/23 13:08:52;;;;;;;13.20;9.25;;;;;;;21.90;32.60;101400.08;2774383;83;21035;-74
2022/03/23 13:13:08;;;;;;;12.75;8.78;;;;;;;22.02;31.85;101394.62;2778312;85;21047;-74
2022/03/23 13:17:10;;;;;;;12.88;10.08;;;;;;;22.04;31.04;101394.44;2777224;85;21067;-75
2022/03/23 13:21:19;;;;;;;11.90;9.90;;;;;;;22.08;30.66;101391.70;2791312;85;21106;-75
2022/03/23 13:25:21;;;;;;;9.78;8.55;;;;;;;22.11;30.81;101384.61;2771479;84;21070;-74
2022/03/23 13:29:27;;;;;;;11.18;8.75;;;;;;;22.16;30.55;101384.06;2777798;83;21567;-74
2022/03/23 13:33:42;;;;;;;13.68;10.13;;;;;;;22.15;30.19;101376.95;2784747;83;21035;-74
2022/03/23 13:38:00;;;;;;;11.28;8.85;;;;;;;22.26;30.93;101375.22;2778241;85;21580;-75
2022/03/23 13:46:17;;;;;;;11.35;8.00;;;;;;;22.23;31.11;101359.33;2731958;86;21090;-75
2022/03/23 13:50:19;;;;;;;13.68;8.45;;;;;;;22.18;31.87;101356.27;2696495;85;21124;-74
2022/03/23 13:54:21;;;;;;;10.45;8.03;;;;;;;22.29;31.06;101350.47;2745468;86;21094;-74
2022/03/23 13:58:29;;;;;;;12.70;9.03;;;;;;;22.25;30.70;101350.50;2738545;85;21117;-74
2022/03/23 14:02:30;;;;;;;11.00;7.75;;;;;;;22.32;30.15;101343.34;2750500;84;21117;-75
2022/03/23 14:06:48;;;;;;;10.63;8.03;;;;;;;22.37;29.54;101338.22;2706762;85;21080;-74
2022/03/23 14:10:50;;;;;;;10.05;7.40;;;;;;;22.48;30.50;101333.45;2682474;87;21051;-74
2022/03/23 14:14:53;;;;;;;11.97;7.97;;;;;;;22.61;31.07;101331.00;2774240;85;21224;-74
2022/03/23 14:18:57;;;;;;;10.45;6.47;;;;;;;22.71;30.09;101325.84;2749254;83;21040;-74
2022/03/23 14:22:59;;;;;;;8.53;6.42;;;;;;;22.78;28.99;101322.23;2781048;83;21078;-76
2022/03/23 14:27:24;;;;;;;9.28;7.10;;;;;;;22.79;31.03;101314.91;2776140;83;21043;-78
2022/03/23 14:31:26;;;;;;;8.55;6.35;;;;;;;22.78;30.19;101302.38;2789495;85;21109;-74
2022/03/23 14:35:40;;;;;;;8.13;6.08;;;;;;;22.79;29.58;101301.36;2772385;84;21030;-75
2022/03/23 14:39:45;;;;;;;9.73;5.03;;;;;;;22.80;28.57;101293.05;2775706;83;21028;-74
2022/03/23 14:43:50;;;;;;;5.97;5.37;;;;;;;22.76;28.87;101293.09;2788299;83;21114;-74
2022/03/23 14:47:52;;;;;;;6.67;5.25;;;;;;;22.76;27.63;101282.73;2792286;85;21122;-74
2022/03/23 14:51:54;;;;;;;8.18;4.37;;;;;;;22.76;28.23;101285.45;2801929;82;20984;-74
2022/03/23 14:55:58;;;;;;;5.58;4.72;;;;;;;22.74;27.18;101284.80;2809451;82;21055;-74
2022/03/23 15:00:04;;;;;;;6.63;4.20;;;;;;;22.78;27.19;101277.97;2823652;83;21599;-74
2022/03/23 15:04:03;;;;;;;7.47;5.05;;;;;;;22.81;27.11;101278.45;2840881;83;21107;-74
2022/03/23 15:16:38;;;;;;;8.98;4.78;;;;;;;22.84;27.15;101269.12;2824475;82;21110;-74
2022/03/23 15:20:41;;;;;;;6.47;3.90;;;;;;;22.79;26.96;101269.66;2814150;82;21311;-72
2022/03/23 15:24:43;;;;;;;7.05;5.55;;;;;;;22.77;26.92;101267.66;2827891;82;21071;-72
2022/03/23 15:28:45;;;;;;;7.85;4.00;;;;;;;22.76;27.75;101261.05;2803806;82;21083;-73
2022/03/23 15:32:46;;;;;;;5.50;3.85;;;;;;;22.71;25.93;101255.33;2833675;82;21054;-75
2022/03/23 15:36:49;;;;;;;5.80;4.03;;;;;;;22.59;25.98;101255.75;2815740;83;21059;-74
2022/03/23 15:40:50;;;;;;;5.30;4.33;;;;;;;22.51;26.45;101256.69;2779111;83;21039;-74
2022/03/23 15:44:52;;;;;;;19.02;6.08;;;;;;;22.43;27.10;101250.45;2812427;82;21040;-71
2022/03/23 15:48:56;;;;;;;9.15;4.62;;;;;;;22.34;29.78;101253.73;2825814;82;21097;-72
2022/03/23 15:52:57;;;;;;;10.13;5.35;;;;;;;22.28;31.13;101251.72;2792641;82;21548;-73
2022/03/23 15:56:58;;;;;;;7.47;4.70;;;;;;;22.13;31.12;101253.87;2813409;82;21086;-74
2022/03/23 16:01:00;;;;;;;7.03;5.80;;;;;;;21.91;30.59;101249.59;2792793;83;21055;-74
2022/03/23 16:05:04;;;;;;;7.83;5.10;;;;;;;21.77;34.27;101249.81;2836085;83;21065;-75
2022/03/23 16:09:07;;;;;;;15.05;6.95;;;;;;;21.60;34.48;101250.87;2813267;83;21001;-72
2022/03/23 16:13:10;;;;;;;9.70;7.08;;;;;;;21.35;34.43;101248.26;2811517;82;21036;-72
2022/03/23 16:17:11;;;;;;;8.23;6.05;;;;;;;21.07;35.35;101249.50;2814398;82;21596;-72
2022/03/23 16:21:13;;;;;;;6.58;5.95;;;;;;;20.81;36.51;101249.70;2809213;82;21092;-72
2022/03/23 16:25:18;;;;;;;9.78;5.58;;;;;;;20.51;36.69;101246.13;2834137;83;21078;-73
2022/03/23 16:29:19;;;;;;;9.50;6.33;;;;;;;20.24;34.59;101241.87;2801520;82;21123;-73
2022/03/23 16:33:21;;;;;;;7.30;5.12;;;;;;;20.00;34.33;101254.31;2805827;82;21028;-73
2022/03/23 16:37:28;;;;;;;7.35;5.12;;;;;;;19.75;36.33;101250.66;2803418;82;21095;-73
2022/03/23 16:41:36;;;;;;;6.53;4.87;;;;;;;19.52;37.18;101249.40;2819053;82;21071;-72
2022/03/23 16:45:38;;;;;;;6.58;5.62;;;;;;;19.31;36.91;101248.95;2798188;82;21119;-73
2022/03/23 16:49:40;;;;;;;10.32;7.30;;;;;;;19.09;37.83;101245.80;2793097;82;21055;-72
2022/03/23 16:53:42;;;;;;;9.05;7.12;;;;;;;18.85;38.78;101240.52;2798418;83;21104;-73
2022/03/23 16:57:43;;;;;;;11.75;7.42;;;;;;;18.59;39.68;101239.98;2782075;83;21070;-72
2022/03/23 17:01:45;;;;;;;10.95;7.60;;;;;;;18.31;41.53;101239.22;2778612;84;21102;-73
2022/03/23 17:14:17;;;;;;;18.57;8.03;;;;;;;17.37;41.43;101248.72;2777413;84;21174;-74
2022/03/23 17:18:18;;;;;;;17.37;7.17;;;;;;;17.08;41.31;101252.31;2778069;83;21427;-74
2022/03/23 17:22:24;;;;;;;13.30;6.80;;;;;;;16.79;41.19;101253.20;2783413;85;21051;-74
2022/03/23 17:26:26;;;;;;;11.85;7.97;;;;;;;16.38;43.32;101277.50;2774727;85;21149;-75
2022/03/23 17:30:28;;;;;;;23.25;14.78;;;;;;;16.03;42.96;101274.34;2781805;85;21055;-74
2022/03/23 17:34:30;;;;;;;17.00;11.93;;;;;;;15.66;43.20;101281.59;2777059;83;21043;-74
2022/03/23 17:38:32;;;;;;;18.80;12.88;;;;;;;15.35;42.94;101283.78;2773069;85;21063;-75
2022/03/23 17:42:36;;;;;;;16.55;11.55;;;;;;;15.17;44.13;101288.91;2766017;83;21079;-74
2022/03/23 17:46:37;;;;;;;15.43;9.25;;;;;;;14.97;44.02;101295.95;2772168;85;21054;-74
2022/03/23 17:50:39;;;;;;;14.85;9.80;;;;;;;14.76;43.31;101292.77;2785643;83;21090;-72
2022/03/23 17:54:42;;;;;;;22.32;11.85;;;;;;;14.61;43.16;101294.01;2810624;82;21048;-73
2022/03/23 17:58:44;;;;;;;64.32;18.25;;;;;;;14.38;42.53;101295.42;2818140;82;21090;-74
2022/03/23 18:02:46;;;;;;;35.38;15.50;;;;;;;14.20;43.36;101301.81;2807067;81;21083;-73
2022/03/23 18:06:50;;;;;;;48.08;21.52;;;;;;;13.99;42.83;101294.55;2809104;82;21063;-73
2022/03/23 18:10:52;;;;;;;34.33;16.40;;;;;;;13.80;43.60;101296.48;2812120;83;21599;-73
2022/03/23 18:14:56;;;;;;;33.13;17.12;;;;;;;13.63;42.56;101301.84;2824511;83;21119;-71
2022/03/23 18:18:57;;;;;;;31.33;18.52;;;;;;;13.54;41.68;101302.92;2814132;81;21064;-72
2022/03/23 18:22:59;;;;;;;24.65;18.23;;;;;;;13.49;41.25;101299.77;2834269;82;21108;-72
2022/03/23 18:27:01;;;;;;;35.85;19.00;;;;;;;13.43;40.90;101300.25;2823406;83;21099;-72
2022/03/23 18:31:03;;;;;;;199.15;48.58;;;;;;;13.41;40.34;101302.16;2822871;82;21055;-73
2022/03/23 18:35:06;;;;;;;178.95;46.73;;;;;;;13.32;43.12;101304.20;2780283;84;21512;-72
2022/03/23 18:39:08;;;;;;;75.80;27.27;;;;;;;13.10;43.17;101306.72;2697118;86;21058;-74
2022/03/23 18:43:10;;;;;;;63.35;21.68;;;;;;;12.78;44.85;101306.50;2830542;83;21060;-76
2022/03/23 18:47:12;;;;;;;22.60;14.90;;;;;;;12.49;46.53;101317.50;2828608;82;21074;-74
2022/03/23 18:51:15;;;;;;;30.15;15.80;;;;;;;12.10;47.17;101317.15;2824814;83;21048;-74
2022/03/23 18:55:17;;;;;;;21.00;14.28;;;;;;;11.79;47.68;101314.45;2827091;82;21063;-75
2022/03/23 18:59:27;;;;;;;24.72;16.45;;;;;;;11.58;47.23;101323.84;2835501;79;71873;-72
2022/03/23 19:03:28;;;;;;;27.00;18.70;;;;;;;11.46;47.91;101336.70;2893769;80;21227;-69
2022/03/23 19:07:29;;;;;;;34.67;19.42;;;;;;;10.99;47.53;101339.80;2902573;80;21045;-70
2022/03/23 19:11:32;;;;;;;36.70;21.77;;;;;;;11.11;47.57;101342.15;2914465;79;21056;-70
2022/03/23 19:15:34;;;;;;;34.27;21.82;;;;;;;11.06;47.79;101343.41;2914059;79;21024;-70
2022/03/23 19:19:36;;;;;;;31.50;22.77;;;;;;;11.07;46.81;101342.45;2846002;81;21055;-70
2022/03/23 19:23:39;;;;;;;44.80;25.80;;;;;;;11.07;47.38;101339.79;2840116;81;21055;-71
2022/03/23 19:27:41;;;;;;;45.78;25.88;;;;;;;10.98;48.01;101351.41;2842558;82;21015;-71
2022/03/23 19:31:42;;;;;;;42.20;23.65;;;;;;;10.82;48.40;101349.42;2843990;81;21050;-70